• Join FlightAware (Why Join?)
  • Login
  • US Flag 
10:46PM EDT


 

Airport Tracker/Info


-or-


 

Live Flight TrackerFlight Track Log ✈ SWA3206 ✈ 09-May-2013 ✈ KMDW - KSAN

Flight Track Log - Related Links

Times and Time Zones

All times are in EDT time to prevent confusion due to time zone crossing. See the SWA3206 flight status page for this flight to view local times or setup timezone preferences in your user account.

Time Position Orientation Groundspeed Altitude Reporting Facility
EDT Latitude Longitude Course Direction KTS MPH feet Rate Location/Type
02:11PM 41.7667 -87.8000 283° West 176 203 2,400  Level Chicago TRACON
02:12PM 41.7500 -87.8667 251° West 224 258 3,900 1,200 Climbing Chicago TRACON
02:13PM 41.7458 -87.9283 265° West 228 262 4,400 1,200 Climbing Chicago Center
02:14PM 41.7469 -88.0294 271° West 271 312 6,000 840 Climbing Chicago Center
02:15PM 41.7553 -88.1297 276° West 282 325 6,200 1,800 Climbing Chicago Center
02:16PM 41.8083 -88.2103 311° West 294 338 9,800 2,880 Climbing Chicago Center
02:17PM 41.9285 -88.6369 283° West  Level FlightAware Approximate
02:17PM 41.8206 -88.3333 278° West 285 328 12,200  Level Chicago Center
02:18PM 41.8058 -88.4475 260° West 316 364 15,000 2,340 Climbing Chicago Center
02:19PM 41.7806 -88.5650 254° West 329 379 17,100 2,040 Climbing Chicago Center
02:20PM 41.7528 -88.6936 254° West 353 406 19,300 2,220 Climbing Chicago Center
02:21PM 41.7231 -88.8303 254° West 378 435 21,800 2,460 Climbing Chicago Center
02:22PM 41.6864 -88.9950 253° West 387 445 24,500 2,280 Climbing Chicago Center
02:23PM 41.6561 -89.1358 254° West 394 453 26,600 1,800 Climbing Chicago Center
02:24PM 41.6261 -89.2825 255° West 409 471 28,300 1,560 Climbing Chicago Center
02:25PM 41.5936 -89.4303 254° West 417 480 29,900 1,740 Climbing Chicago Center
02:26PM 41.5600 -89.5831 254° West 420 483 32,000 1,920 Climbing Chicago Center
02:28PM 41.5358 -89.7283 258° West 405 466 33,900 1,440 Climbing Chicago Center
02:29PM 41.5067 -89.9047 258° West 406 467 35,000 480 Climbing Chicago Center
02:30PM 41.4808 -90.0536 257° West 413 475 35,000 240 Level Chicago Center
02:31PM 41.4567 -90.2017 258° West 411 473 35,600 480 Climbing Chicago Center
02:32PM 41.4308 -90.3492 257° West 411 473 36,000 420 Climbing Chicago Center
02:33PM 41.4053 -90.4989 257° West 415 478 36,500 720 Climbing Chicago Center
02:34PM 41.3722 -90.6811 256° West 426 490 37,500 720 Climbing Chicago Center
02:35PM 41.3458 -90.8294 257° West 416 479 38,000 240 Climbing Chicago Center
02:36PM 41.3192 -90.9781 257° West 415 478 38,000  Level Chicago Center
02:37PM 41.2919 -91.1283 256° West 419 482 38,000  Level Chicago Center
02:38PM 41.2653 -91.2772 257° West 416 479 38,000  Level Chicago Center
02:39PM 41.2325 -91.4553 256° West 413 475 38,000  Level Chicago Center
02:40PM 41.2044 -91.6058 256° West 418 481 38,000  Level Chicago Center
02:41PM 41.1789 -91.7436 256° West 416 479 38,000  Level Chicago Center
02:42PM 41.1508 -91.8922 256° West 420 483 38,000  Level Chicago Center
02:43PM 41.1172 -92.0703 256° West 420 483 38,000  Level Chicago Center
02:44PM 41.0883 -92.2203 256° West 425 489 38,000  Level Chicago Center
02:45PM 41.0600 -92.3708 256° West 427 491 38,000  Level Chicago Center
02:46PM 41.0306 -92.5217 256° West 427 491 38,000  Level Chicago Center
02:47PM 40.9950 -92.7022 255° West 428 493 38,000  Level Chicago Center
02:48PM 40.9653 -92.8561 256° West 433 498 38,000  Level Chicago Center
02:49PM 40.9539 -92.9175 256° West 431 496 38,000  Level Minneapolis Center
02:50PM 40.9225 -93.0689 255° West 432 497 38,000  Level Minneapolis Center
02:51PM 40.8928 -93.2167 255° West 426 490 38,000  Level Minneapolis Center
02:52PM 40.8631 -93.3664 255° West 425 489 38,000  Level Minneapolis Center
02:53PM 40.8258 -93.5489 255° West 431 496 38,000  Level Minneapolis Center
02:54PM 40.7939 -93.6994 254° West 432 497 38,000  Level Minneapolis Center
02:55PM 40.7608 -93.8536 254° West 436 502 38,000  Level Minneapolis Center
02:56PM 40.7297 -94.0072 255° West 439 505 38,000  Level Minneapolis Center
02:57PM 40.7033 -94.1319 254° West 441 507 38,000  Level Minneapolis Center
02:58PM 40.6556 -94.3506 254° West 446 513 38,000  Level Minneapolis Center
02:59PM 40.6222 -94.5069 254° West 447 514 38,000  Level Minneapolis Center
03:00PM 40.5911 -94.6606 255° West 445 512 38,000  Level Minneapolis Center
03:01PM 40.5575 -94.8169 254° West 443 510 38,000  Level Minneapolis Center
03:02PM 40.5139 -95.0131 254° West 455 524 38,000  Level Minneapolis Center
03:03PM 40.4731 -95.2033 254° West 452 520 38,000  Level Minneapolis Center
03:04PM 40.4369 -95.3633 254° West 455 524 38,000  Level Minneapolis Center
03:05PM 40.4011 -95.5236 254° West 457 526 38,000  Level Minneapolis Center
03:06PM 40.3647 -95.6867 254° West 461 531 38,000  Level Minneapolis Center
03:07PM 40.3286 -95.8478 254° West 461 531 38,000  Level Minneapolis Center
03:08PM 40.2919 -96.0075 253° West 458 527 38,000  Level Minneapolis Center
03:10PM 40.2558 -96.1675 254° West 457 526 38,000  Level Minneapolis Center
03:11PM 40.2111 -96.3586 253° West 458 527 38,000  Level Minneapolis Center
03:12PM 40.1742 -96.5161 253° West 455 524 38,000  Level Minneapolis Center
03:13PM 40.1375 -96.6736 253° West 452 520 38,000  Level Minneapolis Center
03:14PM 40.1000 -96.8308 253° West 451 519 38,000  Level Minneapolis Center
03:15PM 40.0628 -96.9878 253° West 453 521 38,000  Level Minneapolis Center
03:16PM 40.0253 -97.1461 253° West 455 524 38,000  Level Minneapolis Center
03:17PM 39.9822 -97.3253 253° West 454 522 38,000  Level Minneapolis Center
03:18PM 39.9439 -97.4817 252° West 452 520 38,000  Level Minneapolis Center
03:19PM 39.9053 -97.6383 252° West 454 522 38,000  Level Minneapolis Center
03:20PM 39.8672 -97.7933 252° West 450 518 38,000  Level Minneapolis Center
03:21PM 39.8294 -97.9486 252° West 449 517 38,000  Level Minneapolis Center
03:22PM 39.7831 -98.1311 252° West 445 512 38,000  Level Minneapolis Center
03:23PM 39.7444 -98.2833 252° West 443 510 38,000  Level Minneapolis Center
03:24PM 39.7056 -98.4358 252° West 443 510 38,000  Level Minneapolis Center
03:25PM 39.6678 -98.5869 252° West 441 507 38,000  Level Minneapolis Center
03:26PM 39.6281 -98.7389 251° West 442 509 38,000  Level Minneapolis Center
03:27PM 39.6047 -98.8300 252° West 440 506 38,000  Level Denver Center
03:28PM 39.5661 -98.9814 252° West 442 509 38,000  Level Denver Center
03:29PM 39.5267 -99.1336 251° West 442 509 38,000  Level Denver Center
03:30PM 39.4864 -99.2839 251° West 442 509 38,000  Level Denver Center
03:31PM 39.4447 -99.4450 252° West 441 507 38,000  Level Denver Center
03:32PM 39.4069 -99.5883 251° West 438 504 38,000  Level Denver Center
03:33PM 39.3617 -99.7542 251° West 437 503 38,000  Level Denver Center
03:34PM 39.3236 -99.8961 251° West 436 502 38,000  Level Denver Center
03:35PM 39.2794 -100.0608 251° West 434 499 38,000  Level Denver Center
03:36PM 39.2400 -100.2025 250° West 436 502 38,000  Level Denver Center
03:37PM 39.1950 -100.3681 251° West 438 504 38,000  Level Denver Center
03:38PM 39.1561 -100.5092 250° West 435 501 38,000  Level Denver Center
03:39PM 39.1092 -100.6756 250° West 441 507 38,000  Level Denver Center
03:40PM 39.0700 -100.8181 251° West 441 507 38,000  Level Denver Center
03:41PM 39.0306 -100.9628 251° West 445 512 38,000  Level Denver Center
03:42PM 38.9869 -101.1167 250° West 447 514 38,000  Level Denver Center
03:43PM 38.9403 -101.2800 250° West 440 506 38,000  Level Denver Center
03:44PM 38.9003 -101.4206 250° West 439 505 38,000  Level Denver Center
03:45PM 38.8536 -101.5844 250° West 441 507 38,000  Level Denver Center
03:46PM 38.8131 -101.7219 249° West 433 498 38,000  Level Denver Center
03:47PM 38.7656 -101.8872 250° West 441 507 38,000  Level Denver Center
03:48PM 38.7256 -102.0272 250° West 439 505 38,000  Level Denver Center
03:49PM 38.6769 -102.1886 249° West 437 503 38,000  Level Denver Center
03:50PM 38.6358 -102.3281 249° West 438 504 38,000  Level Denver Center
03:51PM 38.5878 -102.4900 249° West 438 504 38,000  Level Denver Center
03:52PM 38.5458 -102.6294 249° West 439 505 38,000  Level Denver Center
03:53PM 38.4978 -102.7914 249° West 437 503 38,000  Level Denver Center
03:54PM 38.4561 -102.9303 249° West 438 504 38,000  Level Denver Center
03:55PM 38.4069 -103.0917 249° West 438 504 38,000  Level Denver Center
03:56PM 38.3644 -103.2286 248° West 435 501 38,000  Level Denver Center
03:58PM 38.3228 -103.3675 249° West 437 503 38,000  Level Denver Center
03:59PM 38.2653 -103.5511 248° West 443 510 38,000  Level Denver Center
04:00PM 38.2158 -103.7125 249° West 441 507 38,000  Level Denver Center
04:01PM 38.1722 -103.8500 248° West 441 507 38,000  Level Denver Center
04:02PM 38.1228 -104.0122 249° West 442 509 38,000  Level Denver Center
04:03PM 38.0783 -104.1503 248° West 444 511 38,000  Level Denver Center
04:04PM 38.0264 -104.3133 248° West 450 518 38,000  Level Denver Center
04:05PM 37.9822 -104.4547 248° West 452 520 38,000  Level Denver Center
04:06PM 37.9300 -104.6189 248° West 453 521 38,000  Level Denver Center
04:07PM 37.8850 -104.7578 248° West 449 517 38,000  Level Denver Center
04:08PM 37.8325 -104.9203 248° West 448 516 38,000  Level Denver Center
04:09PM 37.7875 -105.0592 248° West 446 513 38,000  Level Denver Center
04:10PM 37.7339 -105.2192 247° West 444 511 38,000  Level Denver Center
04:11PM 37.6897 -105.3561 248° West 441 507 38,000  Level Denver Center
04:12PM 37.6369 -105.5150 247° West 440 506 38,000  Level Denver Center
04:13PM 37.5917 -105.6503 247° West 439 505 38,000  Level Denver Center
04:14PM 37.5436 -105.7975 248° West 437 503 38,000  Level Denver Center
04:15PM 37.4975 -105.9328 247° West 439 505 38,000  Level Denver Center
04:16PM 37.4444 -106.0911 247° West 440 506 38,000  Level Denver Center
04:17PM 37.3967 -106.2272 246° West 443 510 38,000  Level Denver Center
04:18PM 37.3428 -106.3867 247° West 445 512 38,000  Level Denver Center
04:19PM 37.2967 -106.5228 247° West 443 510 38,000  Level Denver Center
04:20PM 37.2433 -106.6817 247° West 444 511 38,000  Level Denver Center
04:21PM 37.1950 -106.8161 246° West 442 509 38,000  Level Denver Center
04:22PM 37.1494 -106.9519 247° West 443 510 38,000  Level Denver Center
04:24PM 37.0936 -107.1078 246° West 440 506 38,000  Level Denver Center
04:25PM 37.0475 -107.2411 247° West 438 504 38,000  Level Denver Center
04:26PM 36.9911 -107.3967 246° West 438 504 38,000  Level Denver Center
04:27PM 36.9450 -107.5328 247° West 442 509 38,000  Level Denver Center
04:28PM 36.8900 -107.6889 246° West 441 507 38,000  Level Denver Center
04:29PM 36.8408 -107.8219 245° Southwest 440 506 38,000  Level Denver Center
04:30PM 36.7869 -107.9797 247° West 443 510 38,000  Level Denver Center
04:31PM 36.7378 -108.1136 245° Southwest 443 510 38,000  Level Denver Center
04:32PM 36.6892 -108.2481 246° West 445 512 38,000  Level Denver Center
04:33PM 36.6317 -108.4050 245° Southwest 447 514 38,000  Level Denver Center
04:34PM 36.5828 -108.5383 245° Southwest 445 512 38,000  Level Denver Center
04:35PM 36.5253 -108.6956 246° West 448 516 38,000  Level Denver Center
04:36PM 36.4600 -108.8728 245° Southwest 445 512 38,000  Level Denver Center
04:37PM 36.4022 -109.0261 245° Southwest 443 510 38,000  Level Denver Center
04:38PM 36.3458 -109.1792 245° Southwest 441 507 38,000  Level Denver Center
04:39PM 36.2958 -109.3092 245° Southwest 440 506 38,000  Level Denver Center
04:40PM 36.2394 -109.4600 245° Southwest 436 502 38,000  Level Denver Center
04:41PM 36.1903 -109.5872 244° Southwest 432 497 38,000  Level Denver Center
04:42PM 36.1342 -109.7364 245° Southwest 429 494 38,000  Level Denver Center
04:43PM 36.0861 -109.8639 245° Southwest 428 493 38,000  Level Denver Center
04:45PM 36.0303 -110.0125 245° Southwest 428 493 38,000  Level Denver Center
04:46PM 35.9750 -110.1542 244° Southwest 428 493 38,000  Level Denver Center
04:47PM 35.9225 -110.2875 244° Southwest 432 497 38,000  Level Denver Center
04:48PM 35.8711 -110.4225 245° Southwest 434 499 38,000  Level Denver Center
04:49PM 35.8194 -110.5561 245° Southwest 433 498 38,000  Level Denver Center
04:50PM 35.7508 -110.7142 242° Southwest 434 499 38,000  Level Albuquerque Center
04:51PM 35.7022 -110.8447 245° Southwest 437 503 38,000  Level Albuquerque Center
04:52PM 35.6417 -110.9944 244° Southwest 438 504 38,000  Level Albuquerque Center
04:53PM 35.5917 -111.1242 245° Southwest 439 505 38,000  Level Albuquerque Center
04:54PM 35.5314 -111.2753 244° Southwest 441 507 38,000  Level Albuquerque Center
04:55PM 35.4794 -111.4058 244° Southwest 444 511 38,000  Level Albuquerque Center
04:56PM 35.4244 -111.5494 245° Southwest 454 522 38,000  Level Albuquerque Center
04:57PM 35.3700 -111.6828 243° Southwest 445 512 38,000  Level Albuquerque Center
04:58PM 35.3153 -111.8181 244° Southwest 443 510 38,000  Level Albuquerque Center
04:59PM 35.2600 -111.9519 243° Southwest 444 511 38,000  Level Albuquerque Center
05:00PM 35.1933 -112.1161 244° Southwest 447 514 38,000  Level Albuquerque Center
05:01PM 35.1375 -112.2525 243° Southwest 449 517 38,000  Level Albuquerque Center
05:02PM 35.0819 -112.3881 243° Southwest 448 516 38,000  Level Albuquerque Center
05:03PM 35.0258 -112.5231 243° Southwest 447 514 38,000  Level Albuquerque Center
05:04PM 34.9700 -112.6583 243° Southwest 445 512 38,000 -60 Level Albuquerque Center
05:05PM 34.9139 -112.7939 243° Southwest 446 513 37,900 -540 Descending Albuquerque Center
05:06PM 34.8575 -112.9281 243° Southwest 445 512 36,900 -1,020 Descending Albuquerque Center
05:07PM 34.7897 -113.0878 243° Southwest 443 510 35,800 -1,020 Descending Albuquerque Center
05:08PM 34.7336 -113.2219 243° Southwest 445 512 34,800 -900 Descending Albuquerque Center
05:09PM 34.6758 -113.3558 242° Southwest 447 514 34,000 -420 Descending Albuquerque Center
05:10PM 34.6186 -113.4886 242° Southwest 446 513 34,000  Level Albuquerque Center
05:11PM 34.5642 -113.6203 243° Southwest 442 509 34,000  Level Albuquerque Center
05:13PM 34.4975 -113.7728 242° Southwest 439 505 34,000  Level Albuquerque Center
05:14PM 34.4406 -113.9061 243° Southwest 442 509 34,000  Level Albuquerque Center
05:15PM 34.3828 -114.0381 242° Southwest 443 510 34,000 -240 Level Albuquerque Center
05:16PM 34.3267 -114.1686 243° Southwest 439 505 33,600 -720 Descending Albuquerque Center
05:17PM 34.2686 -114.3014 242° Southwest 443 510 32,600 -1,020 Descending Albuquerque Center
05:17PM 34.2372 -114.3750 243° Southwest 447 514 32,100 -1,020 Descending Los Angeles Center
05:18PM 34.1808 -114.5050 242° Southwest 439 505 31,100 -960 Descending Los Angeles Center
05:19PM 34.1231 -114.6350 242° Southwest 441 507 30,200 -960 Descending Los Angeles Center
05:20PM 34.0644 -114.7683 242° Southwest 448 516 29,200 -1,080 Descending Los Angeles Center
05:21PM 33.9944 -114.9256 242° Southwest 446 513 28,000 -600 Descending Los Angeles Center
05:22PM 33.9372 -115.0561 242° Southwest 442 509 28,000  Level Los Angeles Center
05:23PM 33.8789 -115.1861 242° Southwest 442 509 28,000  Level Los Angeles Center
05:24PM 33.8311 -115.3203 247° West 436 502 28,000  Level Los Angeles Center
05:25PM 33.7883 -115.4594 250° West 443 510 28,000  Level Los Angeles Center
05:26PM 33.7389 -115.6233 250° West 438 504 28,000  Level Los Angeles Center
05:27PM 33.6800 -115.7514 241° Southwest 442 509 28,000  Level Los Angeles Center
05:29PM 33.5894 -115.8533 223° Southwest 445 512 28,000 -660 Level Los Angeles Center
05:30PM 33.5058 -115.9533 225° Southwest 431 496 26,700 -1,740 Descending Los Angeles Center
05:31PM 33.4217 -116.0372 220° Southwest 402 463 24,500 -2,100 Descending Los Angeles Center
05:32PM 33.3383 -116.1183 219° Southwest 390 449 22,400 -2,520 Descending Los Angeles Center
05:33PM 33.2431 -116.2125 220° Southwest 376 433 19,300 -2,760 Descending Los Angeles Center
05:34PM 33.1614 -116.2925 219° Southwest 379 436 16,700 -2,580 Descending Los Angeles Center
05:35PM 33.0814 -116.3703 219° Southwest 377 434 14,000 -2,340 Descending Los Angeles Center
05:36PM 32.9992 -116.4481 218° Southwest 370 426 12,000 -1,320 Descending Los Angeles Center
05:37PM 32.9150 -116.4964 206° Southwest 337 388 11,300 -900 Descending Los Angeles Center
05:38PM 32.8328 -116.5564 212° Southwest 320 368 10,200 -1,140 Descending Los Angeles Center
05:39PM 32.7925 -116.6389 240° Southwest 293 337 9,000 -1,320 Descending Los Angeles Center
05:40PM 32.7525 -116.7222 240° Southwest 289 333 7,500 -1,380 Descending Los Angeles Center
05:41PM 32.7125 -116.8067 241° Southwest 292 336 6,200 -1,140 Descending Los Angeles Center
05:42PM 32.6833 -116.8833 246° West 261 300 5,500 -960 Descending Southern California TRACON
05:43PM 32.6833 -116.9500 270° West 232 267 4,600 -1,320 Descending Southern California TRACON
05:44PM 32.7000 -117.0333 283° West 195 224 2,800 -1,380 Descending Southern California TRACON
05:45PM 32.7167 -117.0833 292° West 183 211 1,800 -960 Descending Southern California TRACON
05:46PM 32.7167 -117.1333 270° West 139 160 900 -780 Descending Southern California TRACON
05:46PM 32.7225 -117.1394 319° Northwest 157 181 800 -420 Descending Los Angeles Center
05:47PM 32.7342 -117.1847 287° West 145 167 400 -420 Descending Los Angeles Center
05:49PM 32.7333 -117.1833 281° West  Level FlightAware Approximate
05:56PM 32.7336 -117.1897 281° West  Level Estimated